sensor_id;sensor_type;location;lat;lon;timestamp;pressure;altitude;pressure_sealevel;temperature;humidity
5283;BME280;15376;48.540;9.268;2022-10-14T00:00:19;97723.63;;;11.02;100.00
5283;BME280;15376;48.540;9.268;2022-10-14T00:02:45;97723.38;;;11.12;100.00
5283;BME280;15376;48.540;9.268;2022-10-14T00:05:10;97730.06;;;11.08;100.00
5283;BME280;15376;48.540;9.268;2022-10-14T00:07:36;97717.84;;;10.98;100.00
5283;BME280;15376;48.540;9.268;2022-10-14T00:10:03;97721.50;;;10.97;100.00
5283;BME280;15376;48.540;9.268;2022-10-14T00:12:29;97693.41;;;10.80;100.00
5283;BME280;15376;48.540;9.268;2022-10-14T00:14:55;97720.03;;;10.95;100.00
5283;BME280;15376;48.540;9.268;2022-10-14T00:17:21;97727.19;;;10.94;100.00
5283;BME280;15376;48.540;9.268;2022-10-14T00:19:47;97723.41;;;10.89;100.00
5283;BME280;15376;48.540;9.268;2022-10-14T00:22:12;97710.28;;;10.87;100.00
5283;BME280;15376;48.540;9.268;2022-10-14T00:24:38;97707.72;;;10.79;100.00
5283;BME280;15376;48.540;9.268;2022-10-14T00:27:03;97725.88;;;10.90;100.00
5283;BME280;15376;48.540;9.268;2022-10-14T00:29:28;97727.53;;;10.91;100.00
5283;BME280;15376;48.540;9.268;2022-10-14T00:31:54;97718.50;;;11.00;100.00
5283;BME280;15376;48.540;9.268;2022-10-14T00:34:19;97729.00;;;11.17;100.00
5283;BME280;15376;48.540;9.268;2022-10-14T00:36:45;97737.78;;;11.17;100.00
5283;BME280;15376;48.540;9.268;2022-10-14T00:39:10;97729.88;;;11.24;100.00
5283;BME280;15376;48.540;9.268;2022-10-14T00:41:36;97730.47;;;11.19;100.00
5283;BME280;15376;48.540;9.268;2022-10-14T00:46:47;97697.53;;;11.06;100.00
5283;BME280;15376;48.540;9.268;2022-10-14T00:49:21;97727.59;;;11.21;100.00
5283;BME280;15376;48.540;9.268;2022-10-14T00:52:12;97724.69;;;11.16;100.00
5283;BME280;15376;48.540;9.268;2022-10-14T00:54:59;97715.13;;;11.07;100.00
5283;BME280;15376;48.540;9.268;2022-10-14T00:57:26;97711.00;;;11.04;100.00
5283;BME280;15376;48.540;9.268;2022-10-14T00:59:55;97718.91;;;11.12;100.00
5283;BME280;15376;48.540;9.268;2022-10-14T01:02:24;97718.59;;;11.22;100.00
5283;BME280;15376;48.540;9.268;2022-10-14T01:04:49;97722.66;;;11.18;100.00
5283;BME280;15376;48.540;9.268;2022-10-14T01:07:29;97724.69;;;11.16;100.00
5283;BME280;15376;48.540;9.268;2022-10-14T01:10:10;97721.84;;;11.17;100.00
5283;BME280;15376;48.540;9.268;2022-10-14T01:21:41;97709.75;;;11.15;100.00
5283;BME280;15376;48.540;9.268;2022-10-14T01:24:57;97704.25;;;11.16;100.00
5283;BME280;15376;48.540;9.268;2022-10-14T01:30:05;97705.72;;;11.19;100.00
5283;BME280;15376;48.540;9.268;2022-10-14T01:32:45;97702.41;;;11.17;100.00
5283;BME280;15376;48.540;9.268;2022-10-14T01:37:51;97698.94;;;11.16;100.00
5283;BME280;15376;48.540;9.268;2022-10-14T01:40:34;97686.34;;;11.10;100.00
5283;BME280;15376;48.540;9.268;2022-10-14T01:43:03;97689.94;;;11.17;100.00
5283;BME280;15376;48.540;9.268;2022-10-14T01:45:32;97694.88;;;11.20;100.00
5283;BME280;15376;48.540;9.268;2022-10-14T01:47:59;97683.34;;;11.28;100.00
5283;BME280;15376;48.540;9.268;2022-10-14T01:50:27;97685.44;;;11.32;100.00
5283;BME280;15376;48.540;9.268;2022-10-14T01:53:06;97665.75;;;11.12;100.00
5283;BME280;15376;48.540;9.268;2022-10-14T01:55:37;97680.56;;;11.21;100.00
5283;BME280;15376;48.540;9.268;2022-10-14T01:58:06;97675.19;;;11.15;100.00
5283;BME280;15376;48.540;9.268;2022-10-14T02:00:32;97675.06;;;11.08;100.00
5283;BME280;15376;48.540;9.268;2022-10-14T02:02:57;97678.47;;;11.17;100.00
5283;BME280;15376;48.540;9.268;2022-10-14T02:05:40;97681.41;;;11.22;100.00
5283;BME280;15376;48.540;9.268;2022-10-14T02:08:11;97673.59;;;11.20;100.00
5283;BME280;15376;48.540;9.268;2022-10-14T02:11:06;97686.34;;;11.25;100.00
5283;BME280;15376;48.540;9.268;2022-10-14T02:19:25;97680.66;;;11.28;100.00
5283;BME280;15376;48.540;9.268;2022-10-14T02:22:00;97676.81;;;11.30;100.00
5283;BME280;15376;48.540;9.268;2022-10-14T02:24:31;97673.97;;;11.32;100.00
5283;BME280;15376;48.540;9.268;2022-10-14T02:27:03;97663.91;;;11.27;100.00
5283;BME280;15376;48.540;9.268;2022-10-14T02:29:30;97675.44;;;11.34;100.00
5283;BME280;15376;48.540;9.268;2022-10-14T02:31:57;97671.31;;;11.32;100.00
5283;BME280;15376;48.540;9.268;2022-10-14T02:34:24;97654.81;;;11.22;100.00
5283;BME280;15376;48.540;9.268;2022-10-14T02:36:51;97671.97;;;11.34;100.00
5283;BME280;15376;48.540;9.268;2022-10-14T02:39:26;97665.66;;;11.35;100.00
5283;BME280;15376;48.540;9.268;2022-10-14T02:41:53;97665.66;;;11.35;100.00
5283;BME280;15376;48.540;9.268;2022-10-14T02:44:18;97659.97;;;11.38;100.00
5283;BME280;15376;48.540;9.268;2022-10-14T02:46:44;97657.47;;;11.36;100.00
5283;BME280;15376;48.540;9.268;2022-10-14T02:49:09;97659.97;;;11.38;100.00
5283;BME280;15376;48.540;9.268;2022-10-14T02:51:34;97652.63;;;11.40;100.00
5283;BME280;15376;48.540;9.268;2022-10-14T02:54:00;97646.84;;;11.36;100.00
5283;BME280;15376;48.540;9.268;2022-10-14T02:56:26;97644.38;;;11.35;100.00
5283;BME280;15376;48.540;9.268;2022-10-14T02:58:51;97641.91;;;11.33;100.00
5283;BME280;15376;48.540;9.268;2022-10-14T03:01:17;97646.03;;;11.36;100.00
5283;BME280;15376;48.540;9.268;2022-10-14T03:03:42;97640.34;;;11.39;100.00
5283;BME280;15376;48.540;9.268;2022-10-14T03:06:07;97635.03;;;11.39;100.00
5283;BME280;15376;48.540;9.268;2022-10-14T03:08:33;97642.16;;;11.39;100.00
5283;BME280;15376;48.540;9.268;2022-10-14T03:11:00;97639.06;;;11.35;100.00
5283;BME280;15376;48.540;9.268;2022-10-14T03:13:25;97625.13;;;11.33;100.00
5283;BME280;15376;48.540;9.268;2022-10-14T03:15:50;97619.44;;;11.21;100.00
5283;BME280;15376;48.540;9.268;2022-10-14T03:18:16;97624.00;;;11.27;100.00
5283;BME280;15376;48.540;9.268;2022-10-14T03:20:43;97627.88;;;11.25;100.00
5283;BME280;15376;48.540;9.268;2022-10-14T03:23:12;97626.22;;;11.24;100.00
5283;BME280;15376;48.540;9.268;2022-10-14T03:25:38;97615.59;;;11.24;100.00
5283;BME280;15376;48.540;9.268;2022-10-14T03:28:04;97618.25;;;11.24;100.00
5283;BME280;15376;48.540;9.268;2022-10-14T03:30:29;97614.28;;;11.20;100.00
5283;BME280;15376;48.540;9.268;2022-10-14T03:32:55;97613.75;;;11.24;100.00
5283;BME280;15376;48.540;9.268;2022-10-14T03:35:20;97614.56;;;11.25;100.00
5283;BME280;15376;48.540;9.268;2022-10-14T03:37:46;97613.09;;;11.22;100.00
5283;BME280;15376;48.540;9.268;2022-10-14T03:40:11;97612.28;;;11.22;100.00
5283;BME280;15376;48.540;9.268;2022-10-14T03:42:37;97611.47;;;11.21;100.00
5283;BME280;15376;48.540;9.268;2022-10-14T03:45:03;97610.63;;;11.21;100.00
5283;BME280;15376;48.540;9.268;2022-10-14T03:47:28;97606.13;;;11.21;100.00
5283;BME280;15376;48.540;9.268;2022-10-14T03:49:54;97603.28;;;11.23;100.00
5283;BME280;15376;48.540;9.268;2022-10-14T03:52:19;97598.44;;;11.26;100.00
5283;BME280;15376;48.540;9.268;2022-10-14T03:54:44;97600.72;;;11.29;100.00
5283;BME280;15376;48.540;9.268;2022-10-14T03:57:10;97596.88;;;11.32;100.00
5283;BME280;15376;48.540;9.268;2022-10-14T03:59:35;97583.84;;;11.37;100.00
5283;BME280;15376;48.540;9.268;2022-10-14T04:02:00;97587.63;;;11.43;100.00
5283;BME280;15376;48.540;9.268;2022-10-14T04:04:26;97579.38;;;11.38;100.00
5283;BME280;15376;48.540;9.268;2022-10-14T04:06:51;97580.47;;;11.43;100.00
5283;BME280;15376;48.540;9.268;2022-10-14T04:09:16;97581.28;;;11.44;100.00
5283;BME280;15376;48.540;9.268;2022-10-14T04:11:42;97581.47;;;11.42;100.00
5283;BME280;15376;48.540;9.268;2022-10-14T04:14:07;97572.50;;;11.43;100.00
5283;BME280;15376;48.540;9.268;2022-10-14T04:16:32;97565.88;;;11.39;100.00
5283;BME280;15376;48.540;9.268;2022-10-14T04:18:58;97566.34;;;11.43;100.00
5283;BME280;15376;48.540;9.268;2022-10-14T04:21:23;97563.88;;;11.41;100.00
5283;BME280;15376;48.540;9.268;2022-10-14T04:23:49;97563.88;;;11.41;100.00
5283;BME280;15376;48.540;9.268;2022-10-14T04:26:15;97558.56;;;11.41;100.00
5283;BME280;15376;48.540;9.268;2022-10-14T04:28:40;97555.44;;;11.38;100.00
5283;BME280;15376;48.540;9.268;2022-10-14T04:31:06;97560.47;;;11.32;100.00
5283;BME280;15376;48.540;9.268;2022-10-14T04:33:32;97566.81;;;11.31;100.00
5283;BME280;15376;48.540;9.268;2022-10-14T04:36:00;97559.19;;;11.28;100.00
5283;BME280;15376;48.540;9.268;2022-10-14T04:38:27;97552.59;;;11.24;100.00
5283;BME280;15376;48.540;9.268;2022-10-14T04:40:53;97555.91;;;11.26;100.00
5283;BME280;15376;48.540;9.268;2022-10-14T04:43:18;97557.47;;;11.21;100.00
5283;BME280;15376;48.540;9.268;2022-10-14T04:45:44;97555.81;;;11.20;100.00
5283;BME280;15376;48.540;9.268;2022-10-14T04:48:09;97540.38;;;11.09;100.00
5283;BME280;15376;48.540;9.268;2022-10-14T04:50:35;97526.63;;;11.05;100.00
5283;BME280;15376;48.540;9.268;2022-10-14T04:53:00;97551.31;;;11.20;100.00
5283;BME280;15376;48.540;9.268;2022-10-14T04:55:26;97553.56;;;11.17;100.00
5283;BME280;15376;48.540;9.268;2022-10-14T04:57:51;97547.78;;;11.13;100.00
5283;BME280;15376;48.540;9.268;2022-10-14T05:00:17;97510.94;;;10.95;100.00
5283;BME280;15376;48.540;9.268;2022-10-14T05:02:42;97536.16;;;11.14;100.00
5283;BME280;15376;48.540;9.268;2022-10-14T05:05:08;97546.38;;;11.32;100.00
5283;BME280;15376;48.540;9.268;2022-10-14T05:07:34;97534.19;;;11.23;100.00
5283;BME280;15376;48.540;9.268;2022-10-14T05:09:59;97541.69;;;11.34;100.00
5283;BME280;15376;48.540;9.268;2022-10-14T05:12:26;97537.94;;;11.28;100.00
5283;BME280;15376;48.540;9.268;2022-10-14T05:14:51;97531.34;;;11.24;100.00
5283;BME280;15376;48.540;9.268;2022-10-14T05:17:17;97523.19;;;11.26;100.00
5283;BME280;15376;48.540;9.268;2022-10-14T05:19:42;97526.03;;;11.24;100.00
5283;BME280;15376;48.540;9.268;2022-10-14T05:22:07;97528.44;;;11.19;100.00
5283;BME280;15376;48.540;9.268;2022-10-14T05:24:33;97524.50;;;11.15;100.00
5283;BME280;15376;48.540;9.268;2022-10-14T05:26:58;97526.97;;;11.17;100.00
5283;BME280;15376;48.540;9.268;2022-10-14T05:29:23;97517.72;;;11.13;100.00
5283;BME280;15376;48.540;9.268;2022-10-14T05:31:49;97525.97;;;11.18;100.00
5283;BME280;15376;48.540;9.268;2022-10-14T05:34:14;97519.25;;;11.22;100.00
5283;BME280;15376;48.540;9.268;2022-10-14T05:36:39;97514.38;;;11.25;100.00
5283;BME280;15376;48.540;9.268;2022-10-14T05:39:08;97489.19;;;11.21;100.00
5283;BME280;15376;48.540;9.268;2022-10-14T05:41:35;97504.84;;;11.31;100.00
5283;BME280;15376;48.540;9.268;2022-10-14T05:44:01;97510.78;;;11.33;100.00
5283;BME280;15376;48.540;9.268;2022-10-14T05:46:26;97481.78;;;11.17;100.00
5283;BME280;15376;48.540;9.268;2022-10-14T05:48:51;97467.78;;;11.08;100.00
5283;BME280;15376;48.540;9.268;2022-10-14T05:51:17;97504.47;;;11.34;100.00
5283;BME280;15376;48.540;9.268;2022-10-14T05:53:45;97509.78;;;11.34;100.00
5283;BME280;15376;48.540;9.268;2022-10-14T05:56:11;97502.44;;;11.36;100.00
5283;BME280;15376;48.540;9.268;2022-10-14T05:58:36;97500.31;;;11.46;100.00
5283;BME280;15376;48.540;9.268;2022-10-14T06:01:04;97499.31;;;11.47;100.00
5283;BME280;15376;48.540;9.268;2022-10-14T06:03:30;97498.94;;;11.50;100.00
5283;BME280;15376;48.540;9.268;2022-10-14T06:05:56;97498.94;;;11.50;100.00
5283;BME280;15376;48.540;9.268;2022-10-14T06:08:22;97501.41;;;11.52;100.00
5283;BME280;15376;48.540;9.268;2022-10-14T06:10:47;97492.78;;;11.50;100.00
5283;BME280;15376;48.540;9.268;2022-10-14T06:13:13;97500.22;;;11.54;100.00
5283;BME280;15376;48.540;9.268;2022-10-14T06:15:38;97492.50;;;11.59;100.00
5283;BME280;15376;48.540;9.268;2022-10-14T06:18:04;97488.03;;;11.66;100.00
5283;BME280;15376;48.540;9.268;2022-10-14T06:20:29;97495.44;;;11.71;100.00
5283;BME280;15376;48.540;9.268;2022-10-14T06:22:57;97496.28;;;11.72;100.00
5283;BME280;15376;48.540;9.268;2022-10-14T06:25:23;97501.69;;;11.78;100.00
5283;BME280;15376;48.540;9.268;2022-10-14T06:27:48;97500.50;;;11.81;100.00
5283;BME280;15376;48.540;9.268;2022-10-14T06:30:13;97501.75;;;11.85;100.00
5283;BME280;15376;48.540;9.268;2022-10-14T06:32:39;97504.22;;;11.86;100.00
5283;BME280;15376;48.540;9.268;2022-10-14T06:35:05;97503.03;;;11.89;100.00
5283;BME280;15376;48.540;9.268;2022-10-14T06:37:30;97502.22;;;11.88;100.00
5283;BME280;15376;48.540;9.268;2022-10-14T06:39:55;97502.66;;;11.92;100.00
5283;BME280;15376;48.540;9.268;2022-10-14T06:42:21;97505.56;;;11.97;100.00
5283;BME280;15376;48.540;9.268;2022-10-14T06:44:46;97504.78;;;12.03;100.00
5283;BME280;15376;48.540;9.268;2022-10-14T06:47:11;97503.63;;;12.12;100.00
5283;BME280;15376;48.540;9.268;2022-10-14T06:49:37;97501.66;;;12.21;100.00
5283;BME280;15376;48.540;9.268;2022-10-14T06:52:02;97500.88;;;12.27;100.00
5283;BME280;15376;48.540;9.268;2022-10-14T06:54:28;97506.28;;;12.40;100.00
5283;BME280;15376;48.540;9.268;2022-10-14T06:56:53;97499.38;;;12.46;100.00
5283;BME280;15376;48.540;9.268;2022-10-14T06:59:19;97509.25;;;12.52;100.00
5283;BME280;15376;48.540;9.268;2022-10-14T07:01:44;97496.94;;;12.51;100.00
5283;BME280;15376;48.540;9.268;2022-10-14T07:04:09;97497.00;;;12.57;100.00
5283;BME280;15376;48.540;9.268;2022-10-14T07:06:35;97498.88;;;12.63;100.00
5283;BME280;15376;48.540;9.268;2022-10-14T07:09:01;97497.09;;;12.71;100.00
5283;BME280;15376;48.540;9.268;2022-10-14T07:11:26;97501.59;;;12.70;100.00
5283;BME280;15376;48.540;9.268;2022-10-14T07:13:54;97500.00;;;12.76;100.00
5283;BME280;15376;48.540;9.268;2022-10-14T07:16:19;97495.69;;;12.81;100.00
5283;BME280;15376;48.540;9.268;2022-10-14T07:18:45;97496.31;;;12.83;100.00
5283;BME280;15376;48.540;9.268;2022-10-14T07:21:12;97492.84;;;12.83;100.00
5283;BME280;15376;48.540;9.268;2022-10-14T07:23:38;97499.25;;;12.95;100.00
5283;BME280;15376;48.540;9.268;2022-10-14T07:26:04;97494.81;;;13.09;100.00
5283;BME280;15376;48.540;9.268;2022-10-14T07:28:29;97495.53;;;13.24;100.00
5283;BME280;15376;48.540;9.268;2022-10-14T07:33:23;97491.25;;;13.36;100.00
5283;BME280;15376;48.540;9.268;2022-10-14T07:35:48;97493.78;;;13.51;100.00
5283;BME280;15376;48.540;9.268;2022-10-14T07:38:14;97491.94;;;13.64;100.00
5283;BME280;15376;48.540;9.268;2022-10-14T07:40:39;97486.84;;;13.83;100.00
5283;BME280;15376;48.540;9.268;2022-10-14T07:43:04;97484.00;;;13.91;100.00
5283;BME280;15376;48.540;9.268;2022-10-14T07:45:30;97481.13;;;13.99;100.00
5283;BME280;15376;48.540;9.268;2022-10-14T07:47:59;97481.34;;;13.97;100.00
5283;BME280;15376;48.540;9.268;2022-10-14T07:50:25;97488.50;;;14.03;100.00
5283;BME280;15376;48.540;9.268;2022-10-14T07:52:50;97487.28;;;13.93;100.00
5283;BME280;15376;48.540;9.268;2022-10-14T07:55:15;97488.94;;;13.94;100.00
5283;BME280;15376;48.540;9.268;2022-10-14T07:57:41;97467.97;;;13.91;100.00
5283;BME280;15376;48.540;9.268;2022-10-14T08:00:07;97479.28;;;14.13;100.00
5283;BME280;15376;48.540;9.268;2022-10-14T08:02:33;97482.75;;;14.40;100.00
5283;BME280;15376;48.540;9.268;2022-10-14T08:04:58;97485.22;;;14.61;100.00
5283;BME280;15376;48.540;9.268;2022-10-14T08:07:24;97482.13;;;14.77;100.00
5283;BME280;15376;48.540;9.268;2022-10-14T08:09:51;97487.22;;;14.85;100.00
5283;BME280;15376;48.540;9.268;2022-10-14T08:12:18;97481.44;;;14.88;100.00
5283;BME280;15376;48.540;9.268;2022-10-14T08:14:43;97484.72;;;14.90;100.00
5283;BME280;15376;48.540;9.268;2022-10-14T08:17:09;97486.19;;;14.86;100.00
5283;BME280;15376;48.540;9.268;2022-10-14T08:19:35;97479.56;;;14.95;100.00
5283;BME280;15376;48.540;9.268;2022-10-14T08:22:00;97481.00;;;14.98;100.00
5283;BME280;15376;48.540;9.268;2022-10-14T08:24:26;97478.97;;;14.93;100.00
5283;BME280;15376;48.540;9.268;2022-10-14T08:26:53;97481.88;;;14.85;100.00
5283;BME280;15376;48.540;9.268;2022-10-14T08:29:19;97474.09;;;14.77;100.00
5283;BME280;15376;48.540;9.268;2022-10-14T08:31:47;97480.69;;;14.75;100.00
5283;BME280;15376;48.540;9.268;2022-10-14T08:34:12;97474.94;;;14.71;100.00
5283;BME280;15376;48.540;9.268;2022-10-14T08:36:37;97479.19;;;14.85;100.00
5283;BME280;15376;48.540;9.268;2022-10-14T08:39:03;97474.03;;;14.97;100.00
5283;BME280;15376;48.540;9.268;2022-10-14T08:42:48;97475.97;;;15.21;100.00
5283;BME280;15376;48.540;9.268;2022-10-14T08:44:50;97475.88;;;15.41;100.00
5283;BME280;15376;48.540;9.268;2022-10-14T08:47:22;97474.31;;;15.72;100.00
5283;BME280;15376;48.540;9.268;2022-10-14T08:50:01;97463.56;;;16.03;100.00
5283;BME280;15376;48.540;9.268;2022-10-14T08:52:44;97463.38;;;16.29;100.00
5283;BME280;15376;48.540;9.268;2022-10-14T08:55:24;97460.22;;;16.57;100.00
5283;BME280;15376;48.540;9.268;2022-10-14T08:58:06;97466.94;;;16.85;100.00
5283;BME280;15376;48.540;9.268;2022-10-14T09:00:35;97463.31;;;16.97;100.00
5283;BME280;15376;48.540;9.268;2022-10-14T09:03:06;97458.84;;;17.10;100.00
5283;BME280;15376;48.540;9.268;2022-10-14T09:05:36;97458.50;;;17.36;100.00
5283;BME280;15376;48.540;9.268;2022-10-14T09:08:04;97465.31;;;17.69;100.00
5283;BME280;15376;48.540;9.268;2022-10-14T09:10:32;97460.47;;;18.00;100.00
5283;BME280;15376;48.540;9.268;2022-10-14T09:13:07;97461.34;;;18.24;100.00
5283;BME280;15376;48.540;9.268;2022-10-14T09:15:41;97448.97;;;18.23;100.00
5283;BME280;15376;48.540;9.268;2022-10-14T09:18:15;97458.31;;;18.21;100.00
5283;BME280;15376;48.540;9.268;2022-10-14T09:20:43;97447.66;;;18.14;100.00
5283;BME280;15376;48.540;9.268;2022-10-14T09:23:16;97442.25;;;17.91;100.00
5283;BME280;15376;48.540;9.268;2022-10-14T09:26:10;97446.78;;;17.79;100.00
5283;BME280;15376;48.540;9.268;2022-10-14T09:28:42;97445.16;;;17.59;100.00
5283;BME280;15376;48.540;9.268;2022-10-14T09:31:10;97433.47;;;17.54;100.00
5283;BME280;15376;48.540;9.268;2022-10-14T09:33:37;97437.31;;;17.46;100.00
5283;BME280;15376;48.540;9.268;2022-10-14T09:36:25;97424.56;;;17.42;100.00
5283;BME280;15376;48.540;9.268;2022-10-14T09:38:52;97415.22;;;17.74;100.00
5283;BME280;15376;48.540;9.268;2022-10-14T09:41:23;97430.91;;;17.89;100.00
5283;BME280;15376;48.540;9.268;2022-10-14T09:46:47;97433.59;;;18.00;100.00
5283;BME280;15376;48.540;9.268;2022-10-14T09:49:16;97424.81;;;17.82;100.00
5283;BME280;15376;48.540;9.268;2022-10-14T09:51:43;97422.91;;;17.71;100.00
5283;BME280;15376;48.540;9.268;2022-10-14T09:54:21;97431.56;;;17.73;100.00
5283;BME280;15376;48.540;9.268;2022-10-14T09:56:47;97423.28;;;17.74;100.00
5283;BME280;15376;48.540;9.268;2022-10-14T09:59:20;97425.47;;;17.65;100.00
5283;BME280;15376;48.540;9.268;2022-10-14T10:01:52;97420.28;;;17.82;100.00
5283;BME280;15376;48.540;9.268;2022-10-14T10:06:53;97418.66;;;18.05;100.00
5283;BME280;15376;48.540;9.268;2022-10-14T10:09:20;97414.47;;;18.09;100.00
5283;BME280;15376;48.540;9.268;2022-10-14T10:11:45;97414.03;;;18.35;100.00
5283;BME280;15376;48.540;9.268;2022-10-14T10:16:50;97408.53;;;18.65;100.00
5283;BME280;15376;48.540;9.268;2022-10-14T10:21:44;97404.97;;;18.88;98.38
5283;BME280;15376;48.540;9.268;2022-10-14T10:24:17;97396.97;;;19.05;96.95
5283;BME280;15376;48.540;9.268;2022-10-14T10:26:45;97402.44;;;19.10;98.89
5283;BME280;15376;48.540;9.268;2022-10-14T10:29:26;97398.59;;;19.06;98.96
5283;BME280;15376;48.540;9.268;2022-10-14T10:32:16;97386.13;;;18.88;100.00
5283;BME280;15376;48.540;9.268;2022-10-14T10:37:42;97387.09;;;18.58;99.42
5283;BME280;15376;48.540;9.268;2022-10-14T10:42:44;97379.03;;;18.47;100.00
5283;BME280;15376;48.540;9.268;2022-10-14T10:48:12;97343.41;;;18.05;100.00
5283;BME280;15376;48.540;9.268;2022-10-14T10:50:56;97359.66;;;18.10;100.00
5283;BME280;15376;48.540;9.268;2022-10-14T10:53:43;97356.84;;;18.16;100.00
5283;BME280;15376;48.540;9.268;2022-10-14T11:01:54;97351.34;;;17.99;100.00
5283;BME280;15376;48.540;9.268;2022-10-14T11:04:32;97360.34;;;17.82;100.00
5283;BME280;15376;48.540;9.268;2022-10-14T11:15:57;97365.66;;;17.17;100.00
5283;BME280;15376;48.540;9.268;2022-10-14T11:18:30;97368.16;;;16.82;100.00
5283;BME280;15376;48.540;9.268;2022-10-14T11:24:13;97351.56;;;16.37;100.00
5283;BME280;15376;48.540;9.268;2022-10-14T11:40:00;97331.88;;;17.39;100.00
5283;BME280;15376;48.540;9.268;2022-10-14T11:50:49;97328.09;;;18.05;100.00
5283;BME280;15376;48.540;9.268;2022-10-14T11:53:20;97322.63;;;18.12;100.00
5283;BME280;15376;48.540;9.268;2022-10-14T11:56:01;97305.56;;;18.18;100.00
5283;BME280;15376;48.540;9.268;2022-10-14T11:58:30;97317.34;;;18.28;100.00
5283;BME280;15376;48.540;9.268;2022-10-14T12:01:08;97309.88;;;18.30;100.00
5283;BME280;15376;48.540;9.268;2022-10-14T12:03:53;97305.84;;;18.45;100.00
5283;BME280;15376;48.540;9.268;2022-10-14T12:06:29;97309.34;;;18.57;100.00
5283;BME280;15376;48.540;9.268;2022-10-14T12:09:02;97300.47;;;18.45;100.00
5283;BME280;15376;48.540;9.268;2022-10-14T12:11:34;97299.81;;;18.38;100.00
5283;BME280;15376;48.540;9.268;2022-10-14T12:14:10;97294.97;;;18.63;100.00
5283;BME280;15376;48.540;9.268;2022-10-14T12:16:40;97292.47;;;19.02;100.00
5283;BME280;15376;48.540;9.268;2022-10-14T12:19:08;97286.03;;;19.03;100.00
5283;BME280;15376;48.540;9.268;2022-10-14T12:21:46;97280.97;;;19.06;100.00
5283;BME280;15376;48.540;9.268;2022-10-14T12:24:23;97254.00;;;18.73;100.00
5283;BME280;15376;48.540;9.268;2022-10-14T12:27:03;97266.88;;;18.71;100.00
5283;BME280;15376;48.540;9.268;2022-10-14T12:29:40;97272.63;;;18.51;100.00
5283;BME280;15376;48.540;9.268;2022-10-14T12:34:48;97271.47;;;18.47;100.00
5283;BME280;15376;48.540;9.268;2022-10-14T12:39:48;97257.63;;;18.26;100.00
5283;BME280;15376;48.540;9.268;2022-10-14T12:42:14;97264.06;;;18.25;100.00
5283;BME280;15376;48.540;9.268;2022-10-14T12:44:51;97259.03;;;18.17;100.00
5283;BME280;15376;48.540;9.268;2022-10-14T12:47:25;97261.16;;;18.04;100.00
5283;BME280;15376;48.540;9.268;2022-10-14T12:50:05;97251.59;;;17.96;100.00
5283;BME280;15376;48.540;9.268;2022-10-14T12:52:54;97243.31;;;17.86;100.00
5283;BME280;15376;48.540;9.268;2022-10-14T12:55:23;97244.38;;;17.73;100.00
5283;BME280;15376;48.540;9.268;2022-10-14T12:57:56;97244.94;;;17.75;100.00
5283;BME280;15376;48.540;9.268;2022-10-14T13:02:49;97237.25;;;17.79;100.00
5283;BME280;15376;48.540;9.268;2022-10-14T13:05:26;97252.91;;;17.82;100.00
5283;BME280;15376;48.540;9.268;2022-10-14T13:32:14;97245.22;;;17.20;100.00
5283;BME280;15376;48.540;9.268;2022-10-14T13:34:52;97230.53;;;17.11;100.00
5283;BME280;15376;48.540;9.268;2022-10-14T13:37:29;97223.97;;;16.95;100.00
5283;BME280;15376;48.540;9.268;2022-10-14T13:39:57;97243.91;;;16.99;100.00
5283;BME280;15376;48.540;9.268;2022-10-14T13:42:33;97233.13;;;16.76;100.00
5283;BME280;15376;48.540;9.268;2022-10-14T13:45:11;97232.41;;;16.69;100.00
5283;BME280;15376;48.540;9.268;2022-10-14T13:47:40;97248.25;;;16.71;100.00
5283;BME280;15376;48.540;9.268;2022-10-14T13:50:09;97247.50;;;16.63;100.00
5283;BME280;15376;48.540;9.268;2022-10-14T13:52:36;97251.84;;;16.64;100.00
5283;BME280;15376;48.540;9.268;2022-10-14T13:55:17;97253.09;;;16.62;100.00
5283;BME280;15376;48.540;9.268;2022-10-14T13:57:58;97259.34;;;16.56;100.00
5283;BME280;15376;48.540;9.268;2022-10-14T14:02:52;97236.44;;;16.42;100.00
5283;BME280;15376;48.540;9.268;2022-10-14T14:05:18;97258.63;;;16.49;100.00
5283;BME280;15376;48.540;9.268;2022-10-14T14:07:44;97259.66;;;16.48;100.00
5283;BME280;15376;48.540;9.268;2022-10-14T14:10:11;97255.56;;;16.45;100.00
5283;BME280;15376;48.540;9.268;2022-10-14T14:12:41;97246.25;;;16.48;100.00
5283;BME280;15376;48.540;9.268;2022-10-14T14:15:22;97249.97;;;16.47;100.00
5283;BME280;15376;48.540;9.268;2022-10-14T14:17:48;97241.94;;;16.47;100.00
5283;BME280;15376;48.540;9.268;2022-10-14T14:20:18;97235.28;;;16.38;100.00
5283;BME280;15376;48.540;9.268;2022-10-14T14:22:45;97251.47;;;16.43;100.00
5283;BME280;15376;48.540;9.268;2022-10-14T14:28:03;97234.19;;;16.57;100.00
5283;BME280;15376;48.540;9.268;2022-10-14T14:30:37;97230.47;;;16.58;100.00
5283;BME280;15376;48.540;9.268;2022-10-14T14:33:08;97219.69;;;16.64;100.00
5283;BME280;15376;48.540;9.268;2022-10-14T14:35:35;97219.69;;;16.64;100.00
5283;BME280;15376;48.540;9.268;2022-10-14T14:38:01;97213.09;;;16.60;100.00
5283;BME280;15376;48.540;9.268;2022-10-14T14:40:28;97219.22;;;16.67;100.00
5283;BME280;15376;48.540;9.268;2022-10-14T14:43:01;97223.56;;;16.80;100.00
5283;BME280;15376;48.540;9.268;2022-10-14T14:45:29;97243.91;;;16.99;100.00
5283;BME280;15376;48.540;9.268;2022-10-14T14:47:57;97237.03;;;17.04;100.00
5283;BME280;15376;48.540;9.268;2022-10-14T14:50:28;97239.13;;;17.02;100.00
5283;BME280;15376;48.540;9.268;2022-10-14T14:53:00;97237.28;;;17.02;100.00
5283;BME280;15376;48.540;9.268;2022-10-14T14:58:00;97236.00;;;17.05;100.00
5283;BME280;15376;48.540;9.268;2022-10-14T15:00:26;97241.38;;;17.05;100.00
5283;BME280;15376;48.540;9.268;2022-10-14T15:02:58;97230.97;;;16.96;100.00
5283;BME280;15376;48.540;9.268;2022-10-14T15:05:25;97234.59;;;17.02;100.00
5283;BME280;15376;48.540;9.268;2022-10-14T15:07:50;97233.78;;;17.02;100.00
5283;BME280;15376;48.540;9.268;2022-10-14T15:10:24;97229.34;;;17.07;100.00
5283;BME280;15376;48.540;9.268;2022-10-14T15:12:55;97217.63;;;16.90;100.00